Search for airport 
image banner adimage banner adimage banner ad
image banner ad

1PS1 - Hermitage Central Fire Station

Located in Hermitage, United States

ICAO - 1PS1, IATA -

Data provided by Airmate  

General information

Coordinates: N41°14'24" W80°27'53"
Elevation is 1165 feet MSL.
Magnetic variation is -07° East
View others Airports in Pennsylvania

Operational data

Special qualification required
Current time UTC:
Current local time:
Weather at : KYNG - Youngstown-Warren Rgnl ( 18 km )
METAR: KYNG 091340Z 18007KT 4SM -RA SCT008 BKN026 OVC050 06/03 A3000 RMK AO2 RAB10 P0002 T00560028
TAF: KYNG 091126Z 0912/1012 13004KT P6SM OVC120 FM091400 14004KT 6SM -RA OVC035 FM091600 12006KT 5SM -RA OVC025 FM091800 08010KT 2SM RA OVC008 FM100300 35008KT P6SM OVC008 FM100700 34007KT P6SM BKN015
View NOTAMs / SUP AIP / TFR affecting this airport [VIEW]
Communications frequencies: [VIEW]

Runways:

Airport contact information

Address: Hermitage United States

Satellite view of 1PS1